Time;durP1;ratioP1;P1;durP2;ratioP2;P2;SDS_P1;SDS_P2;PMS_P1;PMS_P2;Temp;Humidity;BMP_temperature;BMP_pressure;BME280_temperature;BME280_humidity;BME280_pressure;Samples;Min_cycle;Max_cycle;Signal;HPM_P1;HPM_P2
2022/09/27 00:00:32;;;;;;;28.73;16.65;;;16.70;99.90;;;;;;5031051;28;20372;-71
2022/09/27 00:02:58;;;;;;;26.02;17.10;;;16.60;99.90;;;;;;5031199;28;20431;-70
2022/09/27 00:05:24;;;;;;;22.50;16.63;;;16.60;99.90;;;;;;5026923;28;20422;-72
2022/09/27 00:07:50;;;;;;;23.17;16.85;;;16.60;99.90;;;;;;5035857;28;20025;-72
2022/09/27 00:10:16;;;;;;;23.13;16.58;;;16.60;99.90;;;;;;5035153;28;20506;-72
2022/09/27 00:12:42;;;;;;;26.42;16.45;;;16.60;99.90;;;;;;5035265;28;20045;-72
2022/09/27 00:15:09;;;;;;;22.40;16.42;;;16.70;99.90;;;;;;5034596;28;20030;-72
2022/09/27 00:17:36;;;;;;;32.97;20.15;;;16.60;99.90;;;;;;5034909;28;20045;-71
2022/09/27 00:20:05;;;;;;;46.05;22.00;;;16.60;99.90;;;;;;5035974;28;20067;-72
2022/09/27 00:22:31;;;;;;;52.63;20.67;;;16.60;99.90;;;;;;5039472;28;20528;-71
2022/09/27 00:24:57;;;;;;;26.42;19.52;;;16.50;99.90;;;;;;5034843;28;20476;-72
2022/09/27 00:27:25;;;;;;;26.48;18.35;;;16.50;99.90;;;;;;5034929;28;20032;-72
2022/09/27 00:29:52;;;;;;;30.27;20.10;;;16.50;99.90;;;;;;4999999;28;20112;-71
2022/09/27 00:32:18;;;;;;;29.45;20.58;;;16.60;99.90;;;;;;5034918;28;20502;-72
2022/09/27 00:34:44;;;;;;;29.33;22.38;;;16.60;99.90;;;;;;5034310;28;20091;-72
2022/09/27 00:37:10;;;;;;;31.63;22.90;;;16.60;99.90;;;;;;5034555;28;20018;-72
2022/09/27 00:39:40;;;;;;;28.77;20.35;;;16.70;99.90;;;;;;5000791;28;20029;-72
2022/09/27 00:42:11;;;;;;;48.80;27.48;;;16.70;99.90;;;;;;5030768;28;20024;-72
2022/09/27 00:44:40;;;;;;;40.50;21.73;;;16.70;99.90;;;;;;5034735;28;20021;-71
2022/09/27 00:47:32;;;;;;;51.67;23.48;;;16.70;99.90;;;;;;5034372;28;20117;-72
2022/09/27 00:50:08;;;;;;;30.17;21.50;;;16.60;99.90;;;;;;5031540;28;20048;-72
2022/09/27 00:53:10;;;;;;;27.05;20.02;;;16.60;99.90;;;;;;5027253;28;20060;-69
2022/09/27 00:55:42;;;;;;;23.98;18.08;;;16.60;99.90;;;;;;4976575;28;20046;-72
2022/09/27 00:58:09;;;;;;;29.98;20.63;;;16.70;99.90;;;;;;4975706;28;20073;-72
2022/09/27 01:00:43;;;;;;;28.42;21.63;;;16.70;99.90;;;;;;4992774;28;20042;-72
2022/09/27 01:03:18;;;;;;;29.92;21.95;;;16.70;99.90;;;;;;4992475;28;20586;-71
2022/09/27 01:05:44;;;;;;;36.55;22.95;;;16.70;99.90;;;;;;4992392;28;20073;-72
2022/09/27 01:08:10;;;;;;;52.67;27.20;;;16.70;99.90;;;;;;5010802;28;20359;-71
2022/09/27 01:10:55;;;;;;;65.63;27.50;;;16.70;99.90;;;;;;4992663;28;20041;-71
2022/09/27 01:13:33;;;;;;;41.92;22.80;;;16.70;99.90;;;;;;4992365;28;20076;-71
2022/09/27 01:16:29;;;;;;;31.02;19.83;;;16.70;99.90;;;;;;4975807;28;20049;-71
2022/09/27 01:18:58;;;;;;;34.95;23.17;;;16.80;99.90;;;;;;4986805;28;20034;-68
2022/09/27 01:21:33;;;;;;;49.63;25.27;;;16.80;99.90;;;;;;4992443;28;20027;-71
2022/09/27 01:24:23;;;;;;;38.85;23.55;;;16.80;99.90;;;;;;4992277;28;20169;-71
2022/09/27 01:27:13;;;;;;;54.20;28.02;;;16.80;99.90;;;;;;5008493;28;20077;-71
2022/09/27 01:30:00;;;;;;;42.88;25.58;;;16.80;99.90;;;;;;5008283;28;20034;-71
2022/09/27 01:33:07;;;;;;;40.13;26.85;;;16.80;99.90;;;;;;4980489;28;20432;-71
2022/09/27 01:35:40;;;;;;;87.20;31.88;;;16.80;99.90;;;;;;5031632;28;20152;-71
2022/09/27 01:38:19;;;;;;;149.38;39.60;;;16.80;99.90;;;;;;5015184;28;20034;-69
2022/09/27 01:41:04;;;;;;;43.25;24.00;;;16.80;99.90;;;;;;5015841;28;20030;-71
2022/09/27 01:43:58;;;;;;;44.55;25.20;;;16.80;99.90;;;;;;5030029;28;20095;-71
2022/09/27 01:46:38;;;;;;;44.90;24.52;;;16.80;99.90;;;;;;5031817;28;20036;-71
2022/09/27 01:49:21;;;;;;;41.92;24.33;;;16.80;99.90;;;;;;5015756;28;20021;-71
2022/09/27 01:51:59;;;;;;;41.33;25.98;;;16.80;99.90;;;;;;5031998;28;20025;-72
2022/09/27 01:54:31;;;;;;;45.92;27.00;;;16.80;99.90;;;;;;5031883;28;20049;-71
2022/09/27 01:57:24;;;;;;;47.42;25.05;;;16.80;99.90;;;;;;5034979;28;20029;-71
2022/09/27 01:59:55;;;;;;;47.42;26.25;;;16.80;99.90;;;;;;4998533;28;20080;-71
2022/09/27 02:03:05;;;;;;;47.38;27.33;;;16.80;99.90;;;;;;5033148;28;20404;-70
2022/09/27 02:06:05;;;;;;;52.15;29.02;;;16.70;99.90;;;;;;5031104;28;20080;-71
2022/09/27 02:09:11;;;;;;;39.72;24.20;;;16.70;99.90;;;;;;5026853;28;20599;-70
2022/09/27 02:11:57;;;;;;;37.50;22.85;;;16.70;99.90;;;;;;5033397;28;20033;-71
2022/09/27 02:14:40;;;;;;;39.97;24.13;;;16.70;99.90;;;;;;5014564;28;20053;-71
2022/09/27 02:17:24;;;;;;;43.47;24.33;;;16.60;99.90;;;;;;5032905;28;20029;-72
2022/09/27 02:20:28;;;;;;;30.88;20.65;;;16.70;99.90;;;;;;5028376;28;20033;-71
2022/09/27 02:23:23;;;;;;;39.60;23.27;;;16.70;99.90;;;;;;4975382;28;20034;-70
2022/09/27 02:25:57;;;;;;;40.38;22.92;;;16.60;99.90;;;;;;4988098;28;20039;-72
2022/09/27 02:28:46;;;;;;;32.95;21.00;;;16.70;99.90;;;;;;4955482;28;20432;-71
2022/09/27 02:31:19;;;;;;;31.77;20.40;;;16.70;99.90;;;;;;4990163;28;20121;-72
2022/09/27 02:33:52;;;;;;;36.28;22.23;;;16.70;99.90;;;;;;4987720;28;20201;-72
2022/09/27 02:36:20;;;;;;;34.00;21.58;;;16.70;99.90;;;;;;4987795;28;20035;-72
2022/09/27 02:38:46;;;;;;;38.20;23.27;;;16.70;99.90;;;;;;4987663;28;20035;-71
2022/09/27 02:41:17;;;;;;;42.58;25.25;;;16.70;99.90;;;;;;4971352;28;20038;-72
2022/09/27 02:43:47;;;;;;;35.03;22.85;;;16.60;99.90;;;;;;4971290;28;20030;-72
2022/09/27 02:46:22;;;;;;;37.85;24.48;;;16.60;99.90;;;;;;4958690;28;20428;-72
2022/09/27 02:49:16;;;;;;;50.33;26.10;;;16.50;99.90;;;;;;4987757;28;20031;-72
2022/09/27 02:52:21;;;;;;;37.63;22.42;;;16.50;99.90;;;;;;4974272;28;20034;-71
2022/09/27 02:55:15;;;;;;;39.03;24.10;;;16.60;99.90;;;;;;4969896;28;20038;-71
2022/09/27 02:58:21;;;;;;;42.95;25.88;;;16.70;99.90;;;;;;4989050;28;20030;-72
2022/09/27 03:01:23;;;;;;;38.58;24.15;;;16.70;99.90;;;;;;5007318;28;20525;-71
2022/09/27 03:04:25;;;;;;;35.63;22.65;;;16.70;99.90;;;;;;4989832;28;20077;-72
2022/09/27 03:06:53;;;;;;;43.90;26.85;;;16.70;99.90;;;;;;4993048;28;20041;-72
2022/09/27 03:09:26;;;;;;;81.40;32.65;;;16.70;99.90;;;;;;5009759;28;20142;-72
2022/09/27 03:11:53;;;;;;;62.53;29.05;;;16.70;99.90;;;;;;5009878;28;20490;-71
2022/09/27 03:14:19;;;;;;;73.07;28.60;;;16.70;99.90;;;;;;5009597;28;20076;-72
2022/09/27 03:16:57;;;;;;;62.30;27.05;;;16.70;99.90;;;;;;4988121;28;20046;-72
2022/09/27 03:19:41;;;;;;;101.18;33.88;;;16.60;99.90;;;;;;5009461;28;20473;-72
2022/09/27 03:22:33;;;;;;;232.88;50.08;;;16.50;99.90;;;;;;4997075;28;20053;-72
2022/09/27 03:24:59;;;;;;;56.05;24.88;;;16.40;99.90;;;;;;5007628;28;20037;-72
2022/09/27 03:27:25;;;;;;;52.63;21.63;;;16.40;99.90;;;;;;5006406;28;20704;-72
2022/09/27 03:29:51;;;;;;;109.65;31.95;;;16.40;99.90;;;;;;4973514;28;20112;-72
2022/09/27 03:32:17;;;;;;;72.25;26.30;;;16.20;99.90;;;;;;4987555;28;20034;-72
2022/09/27 03:35:06;;;;;;;76.65;26.10;;;16.20;99.90;;;;;;4988356;28;20432;-72
2022/09/27 03:37:32;;;;;;;54.78;23.88;;;16.20;99.90;;;;;;5024925;28;20055;-70
2022/09/27 03:39:58;;;;;;;47.33;23.85;;;16.10;99.90;;;;;;5012948;28;20101;-71
2022/09/27 03:42:24;;;;;;;52.10;23.70;;;16.10;99.90;;;;;;5014074;28;20033;-72
2022/09/27 03:44:51;;;;;;;70.93;26.05;;;16.10;99.90;;;;;;5029276;28;20036;-72
2022/09/27 03:47:17;;;;;;;57.17;24.63;;;16.10;99.90;;;;;;5026386;28;20021;-71
2022/09/27 03:49:43;;;;;;;65.78;26.92;;;16.10;99.90;;;;;;5014751;28;20488;-71
2022/09/27 03:52:10;;;;;;;81.95;28.70;;;16.10;99.90;;;;;;5044264;28;20538;-70
2022/09/27 03:54:36;;;;;;;62.67;26.33;;;16.10;99.90;;;;;;5044757;28;20060;-69
2022/09/27 03:57:02;;;;;;;67.53;28.52;;;16.20;99.90;;;;;;5028318;28;20109;-71
2022/09/27 03:59:28;;;;;;;79.15;32.70;;;16.20;99.90;;;;;;5033666;28;20049;-69
2022/09/27 04:02:13;;;;;;;142.98;40.00;;;16.10;99.90;;;;;;5047319;28;20040;-70
2022/09/27 04:04:59;;;;;;;110.05;38.08;;;16.00;99.90;;;;;;5029266;28;20044;-71
2022/09/27 04:07:25;;;;;;;92.70;36.03;;;15.90;99.90;;;;;;5031162;28;20140;-72
2022/09/27 04:09:51;;;;;;;77.20;36.20;;;15.90;99.90;;;;;;5031777;28;20112;-71
2022/09/27 04:12:17;;;;;;;162.32;47.75;;;16.00;99.90;;;;;;5014059;28;20029;-72
2022/09/27 04:14:44;;;;;;;99.35;37.67;;;16.00;99.90;;;;;;5013433;28;20052;-71
2022/09/27 04:17:28;;;;;;;98.80;33.33;;;16.00;99.90;;;;;;5031515;28;20068;-72
2022/09/27 04:20:21;;;;;;;62.40;27.87;;;16.00;99.90;;;;;;5015807;28;20056;-72
2022/09/27 04:22:46;;;;;;;54.95;26.63;;;16.00;99.90;;;;;;5013635;28;20046;-71
2022/09/27 04:25:12;;;;;;;50.28;24.35;;;16.00;99.90;;;;;;5013900;28;20061;-71
2022/09/27 04:27:47;;;;;;;95.63;33.13;;;16.00;99.90;;;;;;5030072;28;20025;-72
2022/09/27 04:30:14;;;;;;;41.42;25.00;;;16.00;99.90;;;;;;5013848;28;20032;-73
2022/09/27 04:33:05;;;;;;;54.40;24.10;;;16.00;99.90;;;;;;5002905;28;20048;-72
2022/09/27 04:38:47;;;;;;;52.33;25.63;;;16.10;99.90;;;;;;5013341;28;20034;-72
2022/09/27 04:41:18;;;;;;;63.45;28.55;;;16.10;99.90;;;;;;5008724;28;20044;-72
2022/09/27 04:43:44;;;;;;;44.13;25.15;;;16.00;99.90;;;;;;5012150;28;20029;-72
2022/09/27 04:46:10;;;;;;;70.30;27.60;;;16.10;99.90;;;;;;5013578;28;20088;-72
2022/09/27 04:48:36;;;;;;;62.92;23.40;;;16.10;99.90;;;;;;5013579;28;20022;-72
2022/09/27 04:51:02;;;;;;;48.72;25.70;;;16.20;99.90;;;;;;5013480;28;20033;-71
2022/09/27 04:53:29;;;;;;;149.60;44.45;;;16.20;99.90;;;;;;5013395;28;20079;-72
2022/09/27 04:55:56;;;;;;;68.45;30.02;;;16.10;99.90;;;;;;5017239;28;20025;-72
2022/09/27 04:58:24;;;;;;;56.63;23.10;;;16.10;99.90;;;;;;5016942;28;20033;-70
2022/09/27 05:00:56;;;;;;;146.05;40.03;;;16.10;99.90;;;;;;5017224;28;20017;-72
2022/09/27 05:03:49;;;;;;;66.80;26.30;;;16.00;99.90;;;;;;5019223;28;20041;-71
2022/09/27 05:06:15;;;;;;;49.15;22.80;;;16.10;99.90;;;;;;5016626;28;20431;-71
2022/09/27 05:08:41;;;;;;;44.00;23.92;;;16.20;99.90;;;;;;5023407;28;20095;-71
2022/09/27 05:11:27;;;;;;;53.97;24.52;;;16.20;99.90;;;;;;5034003;28;20102;-72
2022/09/27 05:14:23;;;;;;;43.85;21.02;;;16.30;99.90;;;;;;4973284;28;20106;-72
2022/09/27 05:17:06;;;;;;;45.63;23.63;;;16.40;99.90;;;;;;4957478;28;20110;-70
2022/09/27 05:19:51;;;;;;;79.50;31.20;;;16.50;99.90;;;;;;4973495;28;20167;-71
2022/09/27 05:22:31;;;;;;;54.08;25.02;;;16.30;99.90;;;;;;4973189;28;20114;-71
2022/09/27 05:24:57;;;;;;;55.22;29.65;;;16.20;99.90;;;;;;4971996;28;20134;-71
2022/09/27 05:27:23;;;;;;;54.28;29.15;;;16.30;99.90;;;;;;4954670;28;20066;-72
2022/09/27 05:29:50;;;;;;;55.53;28.75;;;16.20;99.90;;;;;;4956305;28;20523;-72
2022/09/27 05:32:30;;;;;;;48.20;23.50;;;16.30;99.90;;;;;;4958790;28;20081;-72
2022/09/27 05:35:20;;;;;;;52.33;24.90;;;16.40;99.90;;;;;;4972463;28;20066;-72
2022/09/27 05:37:53;;;;;;;46.92;22.30;;;16.40;99.90;;;;;;4957102;28;20178;-72
2022/09/27 05:40:23;;;;;;;39.33;21.52;;;16.50;99.90;;;;;;4973761;28;20117;-71
2022/09/27 05:42:50;;;;;;;42.10;21.15;;;16.60;99.90;;;;;;4973001;28;20019;-71
2022/09/27 05:45:17;;;;;;;48.17;23.02;;;16.70;99.90;;;;;;4957297;28;20063;-70
2022/09/27 05:47:43;;;;;;;40.28;20.13;;;16.70;99.90;;;;;;4957082;28;20433;-71
2022/09/27 05:50:09;;;;;;;42.20;23.00;;;16.70;99.90;;;;;;4970585;28;20037;-72
2022/09/27 05:52:35;;;;;;;40.63;21.15;;;16.60;99.90;;;;;;5016141;28;20036;-71
2022/09/27 05:55:01;;;;;;;44.60;22.20;;;16.60;99.90;;;;;;5033735;28;20037;-72
2022/09/27 05:57:27;;;;;;;39.75;21.90;;;16.50;99.90;;;;;;5015953;28;20088;-72
2022/09/27 05:59:59;;;;;;;42.10;19.67;;;16.50;99.90;;;;;;5014771;28;20065;-71
2022/09/27 06:02:40;;;;;;;40.88;21.02;;;16.60;99.90;;;;;;5033902;28;20095;-72
2022/09/27 06:05:26;;;;;;;42.25;20.77;;;16.70;99.90;;;;;;5039542;28;20122;-71
2022/09/27 06:08:11;;;;;;;39.25;21.13;;;16.60;99.90;;;;;;5026830;28;20048;-71
2022/09/27 06:10:44;;;;;;;35.67;21.33;;;16.50;99.90;;;;;;5030243;28;20032;-71
2022/09/27 06:13:12;;;;;;;38.15;21.15;;;16.50;99.90;;;;;;5029535;28;20060;-72
2022/09/27 06:15:43;;;;;;;44.00;23.33;;;16.60;99.90;;;;;;5027635;28;20032;-71
2022/09/27 06:18:12;;;;;;;45.22;23.30;;;16.60;99.90;;;;;;5032352;28;20065;-71
2022/09/27 06:20:41;;;;;;;45.28;24.38;;;16.60;99.90;;;;;;5015071;28;20079;-72
2022/09/27 06:23:12;;;;;;;39.50;23.45;;;16.70;99.90;;;;;;5025207;28;20030;-71
2022/09/27 06:25:39;;;;;;;38.22;22.48;;;16.80;99.90;;;;;;5033688;28;20057;-70
2022/09/27 06:28:13;;;;;;;39.72;22.52;;;17.00;99.90;;;;;;5048507;28;20555;-72
2022/09/27 06:30:43;;;;;;;52.63;30.60;;;17.00;99.90;;;;;;5028376;28;20533;-71
2022/09/27 06:33:21;;;;;;;41.30;25.42;;;16.80;99.90;;;;;;5025519;28;20045;-71
2022/09/27 06:35:52;;;;;;;38.90;23.17;;;16.70;99.90;;;;;;5015038;28;20032;-71
2022/09/27 06:38:21;;;;;;;46.38;25.50;;;16.80;99.90;;;;;;5015540;28;20479;-69
2022/09/27 06:41:05;;;;;;;44.70;23.05;;;16.70;99.90;;;;;;5015190;28;20483;-72
2022/09/27 06:43:50;;;;;;;41.05;22.77;;;16.80;99.90;;;;;;5032610;28;20072;-71
2022/09/27 06:46:35;;;;;;;40.03;21.80;;;16.70;99.90;;;;;;5033320;28;20124;-72
2022/09/27 06:49:21;;;;;;;36.50;20.58;;;16.70;99.90;;;;;;5013900;28;20116;-71
2022/09/27 06:51:48;;;;;;;32.40;20.08;;;16.80;99.90;;;;;;5015050;28;20029;-71
2022/09/27 06:54:14;;;;;;;35.00;19.73;;;16.80;99.90;;;;;;5018201;28;20033;-71
2022/09/27 06:56:40;;;;;;;37.15;19.67;;;16.80;99.90;;;;;;5029482;28;20029;-71
2022/09/27 07:02:09;;;;;;;32.72;18.60;;;16.90;99.90;;;;;;5031527;28;20031;-71
2022/09/27 07:05:11;;;;;;;37.88;20.02;;;16.90;99.90;;;;;;4988971;28;20056;-71
2022/09/27 07:07:47;;;;;;;32.22;19.23;;;17.00;99.90;;;;;;4977728;28;20588;-72
2022/09/27 07:10:16;;;;;;;30.80;18.67;;;16.80;99.90;;;;;;5006469;28;20495;-71
2022/09/27 07:12:46;;;;;;;30.98;17.98;;;16.90;99.90;;;;;;4980406;28;20042;-72
2022/09/27 07:15:14;;;;;;;31.30;20.23;;;16.90;99.90;;;;;;4987495;28;20056;-72
2022/09/27 07:17:41;;;;;;;30.40;19.15;;;16.80;99.90;;;;;;4983010;28;20436;-71
2022/09/27 07:20:07;;;;;;;30.35;17.48;;;17.10;99.90;;;;;;4993220;28;20151;-71
2022/09/27 07:22:44;;;;;;;28.50;18.60;;;17.10;99.90;;;;;;4993137;28;20022;-72
2022/09/27 07:25:11;;;;;;;29.17;17.42;;;17.20;99.90;;;;;;5007014;28;20038;-71
2022/09/27 07:27:40;;;;;;;31.75;19.40;;;16.80;99.90;;;;;;4989355;28;20026;-72
2022/09/27 07:30:09;;;;;;;32.10;19.40;;;16.80;99.90;;;;;;4992790;28;20022;-71
2022/09/27 07:32:35;;;;;;;29.00;18.27;;;16.90;99.90;;;;;;4992002;28;20038;-71
2022/09/27 07:35:03;;;;;;;34.33;19.48;;;17.00;99.90;;;;;;5002440;28;20042;-72
2022/09/27 07:37:32;;;;;;;29.90;19.10;;;16.90;99.90;;;;;;4979465;28;20022;-71
2022/09/27 07:39:59;;;;;;;33.95;21.30;;;17.20;99.90;;;;;;5010360;28;20082;-71
2022/09/27 07:42:27;;;;;;;38.05;21.58;;;17.30;99.90;;;;;;5013984;28;20020;-71
2022/09/27 07:44:57;;;;;;;35.03;20.08;;;17.40;99.90;;;;;;5021250;28;20123;-71
2022/09/27 07:47:41;;;;;;;36.58;20.30;;;17.40;99.90;;;;;;5029679;28;20040;-71
2022/09/27 07:50:20;;;;;;;32.90;19.75;;;17.50;99.90;;;;;;5020501;28;20025;-71
2022/09/27 07:52:52;;;;;;;35.70;22.38;;;17.50;99.90;;;;;;5003809;28;20075;-71
2022/09/27 07:55:52;;;;;;;34.58;20.55;;;17.50;99.90;;;;;;5030388;28;20041;-71
2022/09/27 07:58:21;;;;;;;24.73;16.05;;;17.60;99.90;;;;;;5013692;28;20036;-71
2022/09/27 08:00:49;;;;;;;29.23;17.65;;;17.50;99.90;;;;;;5013578;28;20510;-71
2022/09/27 08:03:16;;;;;;;33.25;19.80;;;17.10;99.90;;;;;;5013175;28;20053;-71
2022/09/27 08:05:44;;;;;;;28.92;19.27;;;17.30;99.90;;;;;;5013071;28;20080;-71
2022/09/27 08:08:10;;;;;;;33.75;20.00;;;17.10;99.90;;;;;;5025968;28;20480;-71
2022/09/27 08:10:38;;;;;;;31.52;20.13;;;17.20;99.90;;;;;;5013489;28;20529;-71
2022/09/27 08:13:05;;;;;;;33.45;21.27;;;17.20;99.90;;;;;;5040647;28;20046;-71
2022/09/27 08:15:34;;;;;;;35.47;20.20;;;17.40;99.90;;;;;;5015207;28;20025;-71
2022/09/27 08:18:01;;;;;;;33.78;22.08;;;17.60;99.90;;;;;;5046243;28;20395;-71
2022/09/27 08:20:46;;;;;;;30.92;21.02;;;17.70;99.90;;;;;;5031088;28;20036;-71
2022/09/27 08:23:38;;;;;;;28.35;19.88;;;17.70;99.90;;;;;;5012192;28;20084;-71
2022/09/27 08:26:30;;;;;;;29.63;20.07;;;17.90;99.90;;;;;;5028518;28;20387;-71
2022/09/27 08:29:09;;;;;;;33.60;20.75;;;18.00;99.90;;;;;;5033266;28;20302;-71
2022/09/27 08:31:41;;;;;;;29.08;20.20;;;18.20;99.90;;;;;;5021871;28;20029;-71
2022/09/27 08:34:07;;;;;;;30.63;21.58;;;18.20;99.90;;;;;;5048215;28;20140;-72
2022/09/27 08:36:36;;;;;;;31.00;21.73;;;18.30;99.90;;;;;;5024928;28;20060;-68
2022/09/27 08:39:03;;;;;;;29.55;21.00;;;18.50;99.90;;;;;;5034063;28;20025;-71
2022/09/27 08:41:43;;;;;;;32.15;21.40;;;18.70;99.90;;;;;;5048547;28;20036;-71
2022/09/27 08:44:19;;;;;;;24.45;18.42;;;18.80;99.90;;;;;;5016339;28;20053;-71
2022/09/27 08:47:21;;;;;;;27.88;18.83;;;18.40;99.90;;;;;;5017458;28;20104;-70
2022/09/27 08:49:58;;;;;;;26.60;19.17;;;18.60;99.90;;;;;;5018690;28;20029;-71
2022/09/27 08:52:47;;;;;;;25.38;17.23;;;18.40;99.90;;;;;;5034353;28;20053;-71
2022/09/27 08:55:27;;;;;;;25.95;18.77;;;18.50;99.90;;;;;;5017939;28;20395;-71
2022/09/27 08:57:56;;;;;;;29.70;19.10;;;18.10;99.90;;;;;;5027278;28;20033;-71
2022/09/27 09:00:24;;;;;;;25.33;17.13;;;18.00;99.90;;;;;;5016890;28;20380;-71
2022/09/27 09:02:50;;;;;;;23.30;17.67;;;17.90;99.90;;;;;;5017178;28;20031;-71
2022/09/27 09:05:26;;;;;;;25.65;18.45;;;17.90;99.90;;;;;;5016984;28;20033;-68
2022/09/27 09:08:08;;;;;;;30.13;20.20;;;17.80;99.90;;;;;;5056152;28;20051;-71
2022/09/27 09:13:41;;;;;;;25.35;18.60;;;18.20;99.90;;;;;;5017177;28;20029;-70
2022/09/27 09:16:34;;;;;;;28.25;20.35;;;18.50;99.90;;;;;;5017548;28;20032;-71
2022/09/27 09:19:38;;;;;;;26.67;18.58;;;18.60;99.90;;;;;;5046716;28;20060;-72
2022/09/27 09:23:05;;;;;;;28.15;19.20;;;18.60;99.90;;;;;;4992927;28;20524;-71
2022/09/27 09:25:58;;;;;;;24.53;17.70;;;18.60;99.90;;;;;;4982763;28;20043;-71
2022/09/27 09:28:36;;;;;;;24.70;18.63;;;18.40;99.90;;;;;;4976385;28;20723;-70
2022/09/27 09:31:24;;;;;;;24.85;17.08;;;18.50;99.90;;;;;;4993214;28;20571;-69
2022/09/27 09:33:56;;;;;;;25.55;16.83;;;18.60;99.90;;;;;;4993742;28;20540;-71
2022/09/27 09:36:26;;;;;;;23.95;18.20;;;18.80;99.90;;;;;;4993121;28;20077;-71
2022/09/27 09:39:04;;;;;;;24.35;17.52;;;19.00;99.90;;;;;;4992529;28;20560;-69
2022/09/27 09:41:52;;;;;;;21.83;16.27;;;19.10;99.90;;;;;;4992463;28;20092;-69
2022/09/27 09:44:25;;;;;;;21.60;14.40;;;19.20;99.90;;;;;;4992671;28;20039;-72
2022/09/27 09:46:55;;;;;;;24.67;16.55;;;19.30;99.90;;;;;;4993412;28;20704;-71
2022/09/27 09:49:41;;;;;;;24.42;16.65;;;19.50;99.90;;;;;;4986986;28;20085;-71
2022/09/27 09:52:18;;;;;;;21.35;15.23;;;19.30;99.90;;;;;;4987994;28;20181;-70
2022/09/27 09:55:01;;;;;;;20.52;15.52;;;19.20;99.90;;;;;;4986018;28;20041;-71
2022/09/27 09:57:37;;;;;;;;;;;19.30;99.90;;;;;;5010725;28;20032;-71
2022/09/27 10:00:14;;;;;;;24.25;18.02;;;19.30;99.90;;;;;;5032673;28;20012;-71
2022/09/27 10:02:46;;;;;;;25.60;19.15;;;19.20;99.90;;;;;;5022793;28;20061;-70
2022/09/27 10:05:21;;;;;;;25.70;20.05;;;19.30;99.90;;;;;;5032177;28;20029;-69
2022/09/27 10:07:56;;;;;;;25.45;17.50;;;19.30;99.90;;;;;;5032458;28;20046;-71
2022/09/27 10:10:22;;;;;;;23.20;16.05;;;19.40;99.90;;;;;;5029104;28;20029;-71
2022/09/27 10:12:51;;;;;;;23.60;15.52;;;19.20;99.90;;;;;;5029172;28;20060;-71
2022/09/27 10:15:23;;;;;;;21.75;16.58;;;19.10;99.90;;;;;;5038479;28;20037;-70
2022/09/27 10:17:52;;;;;;;20.65;15.32;;;19.20;99.90;;;;;;5015935;28;20554;-71
2022/09/27 10:21:00;;;;;;;22.90;15.77;;;19.10;99.90;;;;;;5033669;28;20477;-68
2022/09/27 10:23:27;;;;;;;23.23;16.17;;;19.10;99.90;;;;;;4943880;29;20130;-70
2022/09/27 10:26:17;;;;;;;26.05;17.92;;;19.10;99.90;;;;;;4934614;29;20047;-71
2022/09/27 10:28:47;;;;;;;24.98;17.90;;;19.10;99.90;;;;;;4934000;29;20035;-71
2022/09/27 10:31:18;;;;;;;25.98;18.80;;;19.10;99.90;;;;;;4924551;29;20032;-70
2022/09/27 10:34:01;;;;;;;27.63;20.45;;;19.10;99.90;;;;;;4924269;29;20094;-70
2022/09/27 10:36:31;;;;;;;28.88;20.77;;;19.20;99.90;;;;;;4932342;29;20523;-68
2022/09/27 10:39:03;;;;;;;28.38;19.75;;;19.20;99.90;;;;;;4930382;29;20050;-71
2022/09/27 10:41:47;;;;;;;23.50;18.98;;;19.30;99.90;;;;;;4945563;29;20046;-67
2022/09/27 10:44:31;;;;;;;30.20;22.13;;;19.40;99.90;;;;;;4935826;29;20023;-71
2022/09/27 10:47:35;;;;;;;30.63;21.33;;;19.50;99.90;;;;;;4918806;29;20120;-70
2022/09/27 10:50:31;;;;;;;24.63;19.08;;;19.60;99.90;;;;;;4912428;29;20047;-71
2022/09/27 10:53:20;;;;;;;29.80;19.40;;;19.60;99.90;;;;;;4914626;29;20123;-70
2022/09/27 10:55:56;;;;;;;24.75;18.08;;;19.60;99.90;;;;;;4914626;29;20019;-70
2022/09/27 10:58:35;;;;;;;28.45;20.45;;;19.80;99.90;;;;;;4917479;29;20039;-70
2022/09/27 11:01:08;;;;;;;29.10;19.48;;;20.10;99.90;;;;;;4949160;28;20038;-70
2022/09/27 11:03:58;;;;;;;30.20;19.92;;;20.00;99.90;;;;;;4952319;28;20039;-71
2022/09/27 11:06:24;;;;;;;28.20;20.60;;;20.00;99.90;;;;;;4951576;28;20564;-69
2022/09/27 11:08:53;;;;;;;27.85;19.92;;;19.90;99.90;;;;;;4936430;29;20058;-71
2022/09/27 11:11:20;;;;;;;28.73;19.92;;;19.90;99.90;;;;;;4952331;29;20062;-71
2022/09/27 11:14:04;;;;;;;26.33;19.05;;;19.80;99.90;;;;;;4959796;28;20046;-66
2022/09/27 11:17:02;;;;;;;29.35;19.15;;;19.80;99.90;;;;;;4948024;28;20504;-69
2022/09/27 11:19:52;;;;;;;26.55;19.73;;;19.70;99.90;;;;;;5005067;28;20040;-69
2022/09/27 11:22:36;;;;;;;28.55;21.40;;;19.60;99.90;;;;;;5032361;28;20029;-69
2022/09/27 11:25:13;;;;;;;27.58;20.08;;;19.50;99.90;;;;;;5024278;28;20369;-70
2022/09/27 11:27:49;;;;;;;27.48;20.25;;;19.50;99.90;;;;;;5014403;28;20044;-68
2022/09/27 11:30:20;;;;;;;28.63;19.23;;;19.30;99.90;;;;;;5030330;28;20040;-69
2022/09/27 11:33:17;;;;;;;32.63;22.80;;;19.30;99.90;;;;;;5032215;28;20044;-69
2022/09/27 11:36:01;;;;;;;32.88;19.80;;;19.30;99.90;;;;;;5030713;28;20103;-70
2022/09/27 11:38:36;;;;;;;29.27;19.65;;;19.30;99.90;;;;;;5030867;28;20029;-69
2022/09/27 11:41:19;;;;;;;33.03;23.60;;;19.20;99.90;;;;;;5014395;28;20040;-68
2022/09/27 11:44:04;;;;;;;33.97;22.23;;;19.10;99.90;;;;;;5007459;28;20032;-69
2022/09/27 11:46:38;;;;;;;34.38;23.02;;;18.90;99.90;;;;;;5013282;28;20033;-69
2022/09/27 11:49:27;;;;;;;32.88;23.83;;;18.80;99.90;;;;;;5028998;28;20032;-69
2022/09/27 11:52:18;;;;;;;35.08;24.98;;;18.70;99.90;;;;;;5012601;28;20028;-70
2022/09/27 11:54:58;;;;;;;36.47;26.23;;;18.50;99.90;;;;;;5029863;28;20039;-71
2022/09/27 11:57:37;;;;;;;37.03;23.75;;;18.20;99.90;;;;;;5023971;28;20026;-71
2022/09/27 12:00:17;;;;;;;28.95;17.88;;;17.90;99.90;;;;;;5021809;28;20049;-70
2022/09/27 12:03:13;;;;;;;24.10;16.67;;;17.30;99.90;;;;;;5024524;28;20036;-71
2022/09/27 12:06:02;;;;;;;32.85;17.58;;;17.10;99.90;;;;;;5023734;28;20128;-71
2022/09/27 12:08:45;;;;;;;28.55;17.02;;;16.80;99.90;;;;;;5029142;28;20376;-72
2022/09/27 12:11:57;;;;;;;22.52;15.45;;;16.70;99.90;;;;;;5031370;28;20044;-73
2022/09/27 12:14:23;;;;;;;26.42;16.77;;;16.60;99.90;;;;;;4922877;29;20071;-73
2022/09/27 12:16:52;;;;;;;29.92;17.73;;;16.50;99.90;;;;;;4929039;29;20477;-72
2022/09/27 12:19:27;;;;;;;34.17;19.58;;;16.50;99.90;;;;;;4943745;29;20047;-71
2022/09/27 12:22:12;;;;;;;29.00;18.35;;;16.50;99.90;;;;;;4928252;29;20035;-72
2022/09/27 12:24:44;;;;;;;25.15;17.00;;;16.50;99.90;;;;;;4929383;29;20099;-72
2022/09/27 12:27:48;;;;;;;24.88;16.25;;;16.50;99.90;;;;;;4947127;29;20122;-70
2022/09/27 12:30:18;;;;;;;24.10;15.25;;;16.50;99.90;;;;;;4947405;29;20431;-72
2022/09/27 12:33:25;;;;;;;25.13;14.63;;;16.50;99.90;;;;;;4931725;29;20145;-72
2022/09/27 12:35:54;;;;;;;25.73;16.15;;;16.50;99.90;;;;;;4912587;29;20087;-72
2022/09/27 12:38:42;;;;;;;21.92;14.32;;;16.50;99.90;;;;;;4912465;29;20491;-73
2022/09/27 12:41:12;;;;;;;22.52;13.48;;;16.40;99.90;;;;;;4896898;29;20071;-72
2022/09/27 12:43:51;;;;;;;23.00;14.15;;;16.50;99.90;;;;;;4912258;29;20502;-72
2022/09/27 12:46:30;;;;;;;;;;;16.50;99.90;;;;;;4897293;29;20040;-72
2022/09/27 12:49:18;;;;;;;24.38;13.55;;;16.60;99.90;;;;;;4912988;29;19929;-72
2022/09/27 12:51:50;;;;;;;23.15;12.07;;;16.60;99.90;;;;;;4978785;28;20042;-72
2022/09/27 12:54:31;;;;;;;;;;;16.70;99.90;;;;;;5009582;28;20034;-72
2022/09/27 12:57:12;;;;;;;19.05;12.00;;;16.70;99.90;;;;;;4993189;28;19909;-71
2022/09/27 13:00:02;;;;;;;23.80;9.93;;;16.80;99.90;;;;;;4992223;28;20045;-72
2022/09/27 13:02:47;;;;;;;18.23;10.70;;;16.80;99.90;;;;;;4992894;28;20038;-71
2022/09/27 13:05:43;;;;;;;20.95;13.27;;;16.90;99.90;;;;;;4988419;28;20431;-71
2022/09/27 13:08:30;;;;;;;16.67;10.00;;;17.00;99.90;;;;;;4973820;28;20050;-72
2022/09/27 13:11:17;;;;;;;18.13;9.18;;;17.10;99.90;;;;;;4978011;28;20085;-70
2022/09/27 13:13:42;;;;;;;15.82;9.90;;;17.30;99.90;;;;;;4992352;28;20033;-72
2022/09/27 13:16:11;;;;;;;17.10;9.77;;;17.40;99.90;;;;;;5004538;28;20025;-72
2022/09/27 13:19:00;;;;;;;14.50;8.30;;;17.60;99.90;;;;;;5012551;28;20815;-72
2022/09/27 13:21:48;;;;;;;15.73;8.50;;;17.60;99.90;;;;;;5007334;28;20036;-70
2022/09/27 13:24:38;;;;;;;12.85;7.20;;;17.90;99.90;;;;;;4999211;28;20034;-72
2022/09/27 13:27:26;;;;;;;13.30;6.93;;;18.10;99.90;;;;;;5013608;28;20384;-71